Terminal Aerodrome Forecast
Issued by NWS Kansas City/Pleasant Hill, MO

Home | Current Version | Previous Version | Text Only | Print | Product List | Glossary On
Versions: 1 2 3 4 5 6 7 8 9 10 11 12 13 14 15 16 17
000
FTUS43 KEAX 071000 AAA
TAFMCI
TAF AMD
KMCI 071012Z 0710/0806 24005KT P6SM SCT100
     FM071100 VRB05KT P6SM VCTS BKN060CB
      TEMPO 0711/0713 4SM -TSRA BKN025CB
     FM071300 17006KT P6SM BKN100
     FM072100 19012G20KT P6SM FEW050
     FM080200 12010KT P6SM VCTS BKN060CB=

USA.gov is the U.S. government's official web portal to all federal, state and local government web resources and services.